Mermentau, Louisiana
Current Conditions -  °F | °C
As of 12:55 PM on Thursday 30 Oct 2014 (Local Time) from K3R7 Reporting Station
Clear Clear  
Wind Chill: 71°   Ceiling: Unl
Heat Index: 71°   Visibility: 10mi
Dew Point: 44°   Wind: 9mph
Humidity: 37%   Direction: 70°ENE
Pressure: 30.11"   Gusts: NA
Location:  30.19°N, 92.58°W
Report Text: K3R7 301755Z AUTO 07008KT 030V090 10SM CLR 22/07 A3011 RMK AO2 T02190066 10219 20101
Loading
Personal Weather Stations






























Interactive Weather Map
Tropical Storm Tracking
New forecast layout! Learn more

10-Day Weather Forecast

Advertisements
Track Severe Weather on mobile